• Join FlightAware (Why Join?)
  • Login
  • US Flag 
01:16PM EDT


 

Airport Tracker/Info


-or-


 

Live Flight TrackerFlight Track Log ✈ EGF4383 ✈ 10-Jun-2013 ✈ KCHO - KORD

Flight Track Log - Related Links

Times and Time Zones

All times are in EDT time to prevent confusion due to time zone crossing. See the EGF4383 flight status page for this flight to view local times or setup timezone preferences in your user account.

Time Position Orientation Groundspeed Altitude Reporting Facility
EDT Latitude Longitude Course Direction KTS MPH feet Rate Location/Type
05:01PM 38.0833 -78.4833 294° West 199 229 3,200  Level Potomac TRACON
05:02PM 38.2167 -78.6706 270° West  Level FlightAware Approximate
05:03PM 38.2502 -78.7839 299° West  Level FlightAware Approximate
05:03PM 38.0761 -78.6411 267° West 240 276 7,400  Level Washington Center
05:04PM 38.2968 -78.8926 299° West  Level FlightAware Approximate
05:04PM 38.0653 -78.7408 262° West 254 292 9,000  Level Washington Center
05:05PM 38.3426 -79.0020 298° West  Level FlightAware Approximate
05:05PM 38.0564 -78.8356 263° West 259 298 10,400  Level Washington Center
05:06PM 38.3876 -79.1120 294° West  Level FlightAware Approximate
05:06PM 38.0494 -78.9381 265° West 276 318 12,100  Level Washington Center
05:07PM 38.4276 -79.2251 294° West  Level FlightAware Approximate
05:07PM 38.0447 -79.0353 267° West 299 344 13,800  Level Washington Center
05:08PM 38.0917 -79.1350 301° West 299 344 15,200 1,260 Climbing Washington Center
05:09PM 38.1494 -79.2303 308° West 316 364 16,400 1,560 Climbing Washington Center
05:10PM 38.2125 -79.3444 305° West 353 406 18,300 1,740 Climbing Washington Center
05:11PM 38.2678 -79.4478 304° West 358 412 19,900 1,620 Climbing Washington Center
05:12PM 38.3228 -79.5483 305° West 358 412 21,700 1,800 Climbing Washington Center
05:13PM 38.3800 -79.6469 307° West 358 412 23,500 1,800 Climbing Washington Center
05:14PM 38.4272 -79.7342 305° West 358 412 25,300 1,560 Climbing Washington Center
05:15PM 38.4800 -79.8328 304° West 346 398 26,700 1,440 Climbing Washington Center
05:16PM 38.5347 -79.9314 305° West 341 392 28,200 1,740 Climbing Washington Center
05:17PM 38.5933 -80.0383 305° West 341 392 30,200 1,680 Climbing Washington Center
05:18PM 38.6481 -80.1375 305° West 341 392 31,700 1,200 Climbing Washington Center
05:18PM 38.6514 -80.1447 301° West 336 387 31,800 1,020 Climbing Indianapolis Center
05:19PM 38.7164 -80.2658 305° West 344 396 33,100 1,080 Climbing Indianapolis Center
05:20PM 38.7764 -80.3714 306° West 363 418 34,100 960 Climbing Indianapolis Center
05:21PM 38.8331 -80.4786 304° West 365 420 35,100 900 Climbing Indianapolis Center
05:22PM 38.8936 -80.5886 305° West 376 433 36,000 420 Climbing Indianapolis Center
05:24PM 38.9550 -80.7042 304° West 390 449 36,000  Level Indianapolis Center
05:25PM 39.0200 -80.8294 304° West 420 483 36,000  Level Indianapolis Center
05:26PM 39.0781 -80.9664 299° West 434 499 36,000  Level Indianapolis Center
05:27PM 39.1456 -81.1328 298° West 441 507 36,000  Level Indianapolis Center
05:28PM 39.2044 -81.2719 299° West 444 511 36,000  Level Indianapolis Center
05:29PM 39.2625 -81.4136 298° West 448 516 36,000  Level Indianapolis Center
05:30PM 39.3194 -81.5561 297° West 449 517 36,000  Level Indianapolis Center
05:31PM 39.3775 -81.6983 298° West 449 517 36,000  Level Indianapolis Center
05:32PM 39.4347 -81.8400 298° West 446 513 36,000  Level Indianapolis Center
05:33PM 39.5031 -82.0122 297° West 450 518 36,000  Level Indianapolis Center
05:34PM 39.5569 -82.1472 297° West 447 514 36,000  Level Indianapolis Center
05:35PM 39.6142 -82.2906 297° West 445 512 36,000  Level Indianapolis Center
05:36PM 39.6714 -82.4344 297° West 446 513 36,000  Level Indianapolis Center
05:37PM 39.7264 -82.5750 297° West 437 503 36,000  Level Indianapolis Center
05:38PM 39.7822 -82.7172 297° West 437 503 36,000  Level Indianapolis Center
05:39PM 39.8467 -82.8822 297° West 436 502 36,000  Level Indianapolis Center
05:40PM 39.9011 -83.0225 297° West 433 498 36,000  Level Indianapolis Center
05:41PM 39.9558 -83.1639 297° West 436 502 36,000  Level Indianapolis Center
05:42PM 40.0103 -83.3036 297° West 436 502 36,000  Level Indianapolis Center
05:43PM 40.0631 -83.4442 296° West 434 499 36,000  Level Indianapolis Center
05:44PM 40.1178 -83.5878 297° West 441 507 36,000  Level Indianapolis Center
05:45PM 40.1803 -83.7553 296° West 441 507 36,000  Level Indianapolis Center
05:46PM 40.2356 -83.8997 297° West 441 507 36,000  Level Indianapolis Center
05:47PM 40.2906 -84.0456 296° West 442 509 36,000  Level Indianapolis Center
05:48PM 40.3689 -84.1731 309° West 447 514 36,000  Level Indianapolis Center
05:49PM 40.4461 -84.3006 309° West 444 511 36,000 -120 Level Indianapolis Center
05:50PM 40.5250 -84.4294 309° West 448 516 35,800 -660 Descending Indianapolis Center
05:51PM 40.6036 -84.5586 309° West 449 517 34,700 -900 Descending Indianapolis Center
05:52PM 40.6819 -84.6878 309° West 448 516 34,000 -420 Descending Indianapolis Center
05:53PM 40.7500 -84.8047 308° West 434 499 34,000  Level Chicago Center
05:54PM 40.8072 -84.9372 300° West 417 480 34,000  Level Chicago Center
05:55PM 40.8667 -85.0719 300° West 421 484 34,000  Level Chicago Center
05:56PM 40.9267 -85.2092 300° West 428 493 34,000 -600 Level Chicago Center
05:57PM 40.9872 -85.3469 300° West 431 496 32,800 -1,560 Descending Chicago Center
05:58PM 41.0458 -85.4819 300° West 424 488 30,800 -2,100 Descending Chicago Center
05:59PM 41.1144 -85.6406 300° West 414 476 28,400 -2,100 Descending Chicago Center
06:00PM 41.1703 -85.7708 300° West 407 468 26,400 -1,680 Descending Chicago Center
06:01PM 41.2281 -85.9064 300° West 417 480 25,000 -720 Descending Chicago Center
06:03PM 41.2842 -86.0386 299° West 412 474 25,000  Level Chicago Center
06:04PM 41.3219 -86.1811 289° West 409 471 25,000 -1,020 Level Chicago Center
06:05PM 41.3647 -86.3583 288° West 419 482 23,000 -1,980 Descending Chicago Center
06:06PM 41.4000 -86.4992 289° West 410 472 21,000 -2,040 Descending Chicago Center
06:07PM 41.4339 -86.6386 288° West 399 459 18,900 -2,040 Descending Chicago Center
06:08PM 41.4681 -86.7731 289° West 390 449 16,800 -2,040 Descending Chicago Center
06:09PM 41.5008 -86.9106 288° West 393 452 14,800 -2,160 Descending Chicago Center
06:10PM 41.5406 -87.0700 288° West 383 441 12,400 -1,380 Descending Chicago Center
06:11PM 41.5722 -87.1972 288° West 369 425 12,000 -480 Descending Chicago Center
06:12PM 41.6192 -87.3083 300° West 357 411 11,500 -780 Descending Chicago Center
06:13PM 41.6800 -87.4033 311° West 342 394 10,500 -780 Descending Chicago Center
06:14PM 41.7386 -87.4983 310° West 336 387 10,000 -360 Descending Chicago Center
06:15PM 41.8022 -87.6019 309° West 305 351 9,800 -600 Descending Chicago Center
06:16PM 41.8469 -87.6750 309° West 264 304 8,800 -1,260 Descending Chicago Center
06:17PM 41.9006 -87.7297 323° Northwest 262 302 7,200 -900 Descending Chicago Center
06:18PM 41.9658 -87.7256 North 238 274 7,000 -720 Descending Chicago Center
06:19PM 42.0228 -87.6939 22° Northeast 225 259 5,800 -1,200 Descending Chicago Center